Time;durP1;ratioP1;P1;durP2;ratioP2;P2;SDS_P1;SDS_P2;PMS_P1;PMS_P2;Temp;Humidity;BMP_temperature;BMP_pressure;BME280_temperature;BME280_humidity;BME280_pressure;Samples;Min_cycle;Max_cycle;Signal;HPM_P1;HPM_P2
2023/01/24 00:02:00;;;;;;;38.42;26.48;;;3.00;99.90;;;;;;5005112;28;20455;-78
2023/01/24 00:04:26;;;;;;;35.95;24.48;;;3.00;99.90;;;;;;5006422;28;20148;-79
2023/01/24 00:06:51;;;;;;;34.85;23.80;;;3.00;99.90;;;;;;5013332;28;20050;-80
2023/01/24 00:09:17;;;;;;;38.58;24.20;;;3.00;99.90;;;;;;5012712;28;20452;-79
2023/01/24 00:11:43;;;;;;;35.22;24.75;;;3.10;99.90;;;;;;5008720;28;20050;-78
2023/01/24 00:14:08;;;;;;;36.92;24.77;;;3.00;99.90;;;;;;5013066;28;20450;-78
2023/01/24 00:16:34;;;;;;;33.63;23.23;;;3.10;99.90;;;;;;4988764;28;20048;-79
2023/01/24 00:19:00;;;;;;;31.63;21.98;;;3.00;99.90;;;;;;4974794;28;20066;-79
2023/01/24 00:21:25;;;;;;;38.30;24.35;;;3.00;99.90;;;;;;4994166;28;20104;-79
2023/01/24 00:23:53;;;;;;;34.45;24.55;;;3.10;99.90;;;;;;5010476;28;20050;-78
2023/01/24 00:26:20;;;;;;;34.50;23.67;;;3.00;99.90;;;;;;4974266;28;20042;-78
2023/01/24 00:28:46;;;;;;;35.97;23.95;;;3.00;99.90;;;;;;5007542;28;20117;-78
2023/01/24 00:31:12;;;;;;;30.45;20.73;;;3.00;99.90;;;;;;5009128;28;20058;-78
2023/01/24 00:33:38;;;;;;;37.75;25.38;;;3.00;99.90;;;;;;5007398;28;20108;-78
2023/01/24 00:36:04;;;;;;;34.15;23.02;;;3.00;99.90;;;;;;4993455;28;20046;-78
2023/01/24 00:38:30;;;;;;;38.08;24.30;;;3.00;99.90;;;;;;5018751;28;20125;-78
2023/01/24 00:40:56;;;;;;;36.08;25.38;;;3.00;99.90;;;;;;5009717;28;20049;-78
2023/01/24 00:43:22;;;;;;;35.42;23.42;;;3.00;99.90;;;;;;5003454;28;20069;-78
2023/01/24 00:45:48;;;;;;;35.95;24.67;;;3.00;99.90;;;;;;4971009;28;20433;-78
2023/01/24 00:48:14;;;;;;;34.03;23.85;;;3.00;99.90;;;;;;5007498;28;20046;-80
2023/01/24 00:50:40;;;;;;;34.25;24.00;;;3.00;99.90;;;;;;4992994;28;20053;-80
2023/01/24 00:53:06;;;;;;;32.60;23.33;;;3.00;99.90;;;;;;4995157;28;20049;-80
2023/01/24 00:55:32;;;;;;;38.30;23.73;;;3.10;99.90;;;;;;4996851;28;20106;-80
2023/01/24 00:57:58;;;;;;;32.80;23.10;;;3.00;99.90;;;;;;4987188;28;20105;-80
2023/01/24 01:00:24;;;;;;;33.53;22.65;;;3.00;99.90;;;;;;5020353;28;20037;-80
2023/01/24 01:02:50;;;;;;;33.33;22.73;;;3.00;99.90;;;;;;5020486;28;20053;-80
2023/01/24 01:05:16;;;;;;;31.45;21.63;;;3.00;99.90;;;;;;4989406;28;20060;-80
2023/01/24 01:07:42;;;;;;;32.55;22.83;;;3.00;99.90;;;;;;5004366;28;20054;-80
2023/01/24 01:10:08;;;;;;;31.20;19.50;;;3.00;99.90;;;;;;5006197;28;20049;-80
2023/01/24 01:12:34;;;;;;;26.67;17.85;;;3.00;99.90;;;;;;5003350;28;20072;-78
2023/01/24 01:15:00;;;;;;;27.73;20.58;;;3.10;99.90;;;;;;5003350;28;20072;-78
2023/01/24 01:17:26;;;;;;;28.77;20.92;;;3.10;99.90;;;;;;4985145;28;20049;-78
2023/01/24 01:19:53;;;;;;;29.08;19.92;;;3.10;99.90;;;;;;5008186;28;20034;-79
2023/01/24 01:22:18;;;;;;;26.42;19.17;;;3.10;99.90;;;;;;5004589;28;20042;-79
2023/01/24 01:24:44;;;;;;;25.05;17.35;;;3.10;99.90;;;;;;5004902;28;20036;-79
2023/01/24 01:27:10;;;;;;;30.40;19.38;;;3.10;99.90;;;;;;4971535;28;20041;-79
2023/01/24 01:29:36;;;;;;;21.52;15.38;;;3.10;99.90;;;;;;5005914;28;20087;-79
2023/01/24 01:32:01;;;;;;;19.40;13.52;;;3.10;99.90;;;;;;5008437;28;20464;-79
2023/01/24 01:34:27;;;;;;;19.92;15.45;;;3.10;99.90;;;;;;4989057;28;20456;-79
2023/01/24 01:36:53;;;;;;;20.45;14.98;;;3.10;99.90;;;;;;5009831;28;20121;-80
2023/01/24 01:39:18;;;;;;;19.23;15.68;;;3.10;99.90;;;;;;4994358;28;20049;-80
2023/01/24 01:41:44;;;;;;;22.33;16.17;;;3.10;99.90;;;;;;4992419;28;20046;-80
2023/01/24 01:44:38;;;;;;;22.95;16.88;;;3.10;99.90;;;;;;5014272;28;20519;-80
2023/01/24 01:47:28;;;;;;;22.00;16.20;;;3.10;99.90;;;;;;5009551;28;20046;-80
2023/01/24 01:50:05;;;;;;;23.45;16.77;;;3.10;99.90;;;;;;5008145;28;20056;-80
2023/01/24 01:52:35;;;;;;;24.15;17.92;;;3.10;99.90;;;;;;5015352;28;20041;-80
2023/01/24 01:55:06;;;;;;;22.33;16.90;;;3.10;99.90;;;;;;4995388;28;20050;-80
2023/01/24 01:57:34;;;;;;;22.92;17.80;;;3.10;99.90;;;;;;5020095;28;20038;-80
2023/01/24 02:00:10;;;;;;;21.58;17.23;;;3.10;99.90;;;;;;5021564;28;20093;-81
2023/01/24 02:02:38;;;;;;;22.20;16.80;;;3.10;99.90;;;;;;5006102;28;20065;-80
2023/01/24 02:05:05;;;;;;;;;;;3.10;99.90;;;;;;5014817;28;20700;-80
2023/01/24 02:07:38;;;;;;;17.45;13.60;;;3.10;99.90;;;;;;5018985;28;19989;-80
2023/01/24 02:10:04;;;;;;;17.15;11.43;;;3.10;99.90;;;;;;4997767;28;20052;-80
2023/01/24 02:12:38;;;;;;;17.25;13.85;;;3.10;99.90;;;;;;5012456;28;20120;-80
2023/01/24 02:18:10;;;;;;;16.17;14.02;;;3.00;99.90;;;;;;5013295;28;20449;-80
2023/01/24 02:20:37;;;;;;;17.33;13.13;;;3.10;99.90;;;;;;5004149;28;20038;-80
2023/01/24 02:23:36;;;;;;;15.60;12.27;;;3.00;99.90;;;;;;5004132;28;20042;-80
2023/01/24 02:26:22;;;;;;;17.83;13.85;;;3.10;99.90;;;;;;5002277;28;21109;-80
2023/01/24 02:28:57;;;;;;;19.02;14.18;;;3.00;99.90;;;;;;5004818;28;20690;-80
2023/01/24 02:31:23;;;;;;;17.70;13.98;;;3.00;99.90;;;;;;5004661;28;20052;-80
2023/01/24 02:33:49;;;;;;;16.95;13.90;;;3.00;99.90;;;;;;4987431;28;20044;-79
2023/01/24 02:36:35;;;;;;;19.20;14.90;;;3.00;99.90;;;;;;5003479;28;20045;-79
2023/01/24 02:39:05;;;;;;;20.98;15.30;;;3.00;99.90;;;;;;4995276;28;20785;-79
2023/01/24 02:41:54;;;;;;;19.00;14.88;;;3.00;99.90;;;;;;5007596;28;20417;-79
2023/01/24 02:44:32;;;;;;;20.15;14.35;;;3.00;99.90;;;;;;4986316;28;20046;-80
2023/01/24 02:46:57;;;;;;;18.75;14.50;;;3.00;99.90;;;;;;5007446;28;20042;-80
2023/01/24 02:49:23;;;;;;;21.60;14.25;;;3.00;99.90;;;;;;5006340;28;20440;-80
2023/01/24 02:54:33;;;;;;;15.60;11.98;;;3.00;99.90;;;;;;4998578;28;20050;-79
2023/01/24 02:59:43;;;;;;;16.13;12.60;;;3.00;99.90;;;;;;5015261;28;20050;-80
2023/01/24 03:02:08;;;;;;;15.05;11.90;;;3.00;99.90;;;;;;5015693;28;20052;-79
2023/01/24 03:04:34;;;;;;;13.88;11.10;;;3.00;99.90;;;;;;5013995;28;20496;-79
2023/01/24 03:06:59;;;;;;;13.73;10.27;;;3.00;99.90;;;;;;5014480;28;20080;-79
2023/01/24 03:09:34;;;;;;;14.90;11.93;;;3.00;99.90;;;;;;5015047;28;20492;-79
2023/01/24 03:36:42;;;;;;;14.65;10.93;;;2.90;99.90;;;;;;5003343;28;20066;-79
2023/01/24 03:41:54;;;;;;;12.57;9.32;;;2.90;99.90;;;;;;5005993;28;20120;-78
2023/01/24 03:44:19;;;;;;;12.88;9.30;;;2.90;99.90;;;;;;5007803;28;20078;-78
2023/01/24 03:46:45;;;;;;;11.15;9.07;;;2.90;99.90;;;;;;4993360;28;20046;-79
2023/01/24 03:49:11;;;;;;;11.55;8.70;;;2.90;99.90;;;;;;5014957;28;20060;-80
2023/01/24 03:54:21;;;;;;;11.35;9.02;;;2.90;99.90;;;;;;5000735;28;20050;-79
2023/01/24 03:56:47;;;;;;;10.90;9.20;;;2.90;99.90;;;;;;5017111;28;20048;-79
2023/01/24 03:59:13;;;;;;;11.15;8.90;;;2.90;99.90;;;;;;5013798;28;20500;-79
2023/01/24 04:01:38;;;;;;;12.68;9.85;;;2.90;99.90;;;;;;4995422;28;20058;-79
2023/01/24 04:04:04;;;;;;;11.48;9.23;;;2.90;99.90;;;;;;4992630;28;20053;-79
2023/01/24 04:06:29;;;;;;;9.23;7.43;;;2.80;99.90;;;;;;4989893;28;20464;-79
2023/01/24 04:08:55;;;;;;;10.73;9.05;;;2.80;99.90;;;;;;5005719;28;20054;-79
2023/01/24 04:11:21;;;;;;;11.75;9.02;;;2.80;99.90;;;;;;5013049;28;20050;-79
2023/01/24 04:13:46;;;;;;;10.95;7.90;;;2.80;99.90;;;;;;5013579;28;20038;-79
2023/01/24 04:16:12;;;;;;;9.90;8.60;;;2.80;99.90;;;;;;5010989;28;20049;-79
2023/01/24 04:18:38;;;;;;;11.38;9.40;;;2.80;99.90;;;;;;5009296;28;20081;-78
2023/01/24 04:21:04;;;;;;;10.95;8.88;;;2.80;99.90;;;;;;5011531;28;20074;-78
2023/01/24 04:23:31;;;;;;;11.05;8.90;;;2.80;99.90;;;;;;5006558;28;20056;-78
2023/01/24 04:25:59;;;;;;;11.45;9.80;;;2.80;99.90;;;;;;4984183;28;20038;-78
2023/01/24 04:28:25;;;;;;;;;;;2.80;99.90;;;;;;5004688;28;20060;-78
2023/01/24 04:31:01;;;;;;;10.68;8.90;;;2.80;99.90;;;;;;4984975;28;19929;-78
2023/01/24 04:33:27;;;;;;;11.55;8.82;;;2.80;99.90;;;;;;5001292;28;20101;-78
2023/01/24 04:35:58;;;;;;;12.07;9.20;;;2.80;99.90;;;;;;5003095;28;20057;-76
2023/01/24 04:38:23;;;;;;;10.55;8.70;;;2.90;99.90;;;;;;5009119;28;20037;-76
2023/01/24 04:41:00;;;;;;;10.52;8.57;;;2.80;99.90;;;;;;5007893;28;20624;-78
2023/01/24 04:43:26;;;;;;;11.85;9.20;;;2.80;99.90;;;;;;4988043;28;20069;-78
2023/01/24 04:45:55;;;;;;;9.57;7.85;;;2.80;99.90;;;;;;5009850;28;20115;-78
2023/01/24 04:48:21;;;;;;;11.75;8.93;;;2.70;99.90;;;;;;4995028;28;20500;-78
2023/01/24 04:50:46;;;;;;;10.50;8.57;;;2.70;99.90;;;;;;4986975;28;20085;-78
2023/01/24 04:53:12;;;;;;;9.65;8.05;;;2.70;99.90;;;;;;4971538;28;20065;-78
2023/01/24 04:55:37;;;;;;;10.32;7.20;;;2.70;99.90;;;;;;5000831;28;20420;-78
2023/01/24 04:58:03;;;;;;;10.63;7.80;;;2.70;99.90;;;;;;5006336;28;20033;-78
2023/01/24 05:00:29;;;;;;;9.55;8.27;;;2.70;99.90;;;;;;4984870;28;20124;-78
2023/01/24 05:02:54;;;;;;;10.10;9.00;;;2.70;99.90;;;;;;5005263;28;20088;-78
2023/01/24 05:05:20;;;;;;;9.70;8.52;;;2.70;99.90;;;;;;5002757;28;20145;-78
2023/01/24 05:07:45;;;;;;;10.60;8.88;;;2.70;99.90;;;;;;5009963;28;20078;-78
2023/01/24 05:10:11;;;;;;;10.75;9.32;;;2.70;99.90;;;;;;5010236;28;20404;-78
2023/01/24 05:12:37;;;;;;;9.13;7.63;;;2.70;99.90;;;;;;5007124;28;20050;-76
2023/01/24 05:15:03;;;;;;;10.93;8.98;;;2.70;99.90;;;;;;5003480;28;20551;-76
2023/01/24 05:17:28;;;;;;;10.70;9.02;;;2.70;99.90;;;;;;5008891;28;20049;-76
2023/01/24 05:19:54;;;;;;;9.27;7.80;;;2.70;99.90;;;;;;5006778;28;20042;-76
2023/01/24 05:22:20;;;;;;;10.73;8.90;;;2.70;99.90;;;;;;5007518;28;20057;-76
2023/01/24 05:24:45;;;;;;;9.85;7.53;;;2.60;99.90;;;;;;5006925;28;20049;-76
2023/01/24 05:27:11;;;;;;;10.57;8.77;;;2.60;99.90;;;;;;5005300;28;20038;-76
2023/01/24 05:29:36;;;;;;;10.68;8.55;;;2.60;99.90;;;;;;5006194;28;20030;-77
2023/01/24 05:32:02;;;;;;;11.55;9.45;;;2.70;99.90;;;;;;5004127;28;20041;-77
2023/01/24 05:34:28;;;;;;;11.45;8.75;;;2.70;99.90;;;;;;5006474;28;20033;-77
2023/01/24 05:36:53;;;;;;;11.95;9.52;;;2.60;99.90;;;;;;4988479;28;20527;-77
2023/01/24 05:39:19;;;;;;;10.50;8.88;;;2.60;99.90;;;;;;5005727;28;20081;-77
2023/01/24 05:41:44;;;;;;;10.88;9.57;;;2.60;99.90;;;;;;5006044;28;20038;-77
2023/01/24 05:44:10;;;;;;;10.07;8.32;;;2.60;99.90;;;;;;5007348;28;20046;-77
2023/01/24 05:46:36;;;;;;;11.77;9.25;;;2.60;99.90;;;;;;5005031;28;20049;-77
2023/01/24 05:49:01;;;;;;;10.65;9.02;;;2.60;99.90;;;;;;4990597;28;20072;-76
2023/01/24 05:51:27;;;;;;;10.18;8.55;;;2.60;99.90;;;;;;5007451;28;20476;-77
2023/01/24 05:53:53;;;;;;;12.80;9.43;;;2.60;99.90;;;;;;5002664;28;20049;-77
2023/01/24 05:56:19;;;;;;;11.23;9.15;;;2.60;99.90;;;;;;5007599;28;20038;-77
2023/01/24 05:58:46;;;;;;;11.30;9.35;;;2.60;99.90;;;;;;4986076;28;20484;-78
2023/01/24 06:01:13;;;;;;;11.43;9.50;;;2.60;99.90;;;;;;5005206;28;20046;-78
2023/01/24 06:03:43;;;;;;;12.18;9.80;;;2.60;99.90;;;;;;5005287;28;20050;-78
2023/01/24 06:06:13;;;;;;;11.77;8.48;;;2.70;99.90;;;;;;5003701;28;20694;-78
2023/01/24 06:08:39;;;;;;;10.77;9.60;;;2.60;99.90;;;;;;5002738;28;20500;-78
2023/01/24 06:11:07;;;;;;;12.10;9.35;;;2.60;99.90;;;;;;5006265;28;20056;-78
2023/01/24 06:13:33;;;;;;;12.60;9.38;;;2.60;99.90;;;;;;5005890;28;20148;-78
2023/01/24 06:16:12;;;;;;;11.73;9.88;;;2.60;99.90;;;;;;5005326;28;20496;-78
2023/01/24 06:18:38;;;;;;;11.98;9.90;;;2.60;99.90;;;;;;4984670;28;20140;-78
2023/01/24 06:21:35;;;;;;;11.85;9.32;;;2.60;99.90;;;;;;4992188;28;20504;-78
2023/01/24 06:24:01;;;;;;;12.20;10.18;;;2.60;99.90;;;;;;4986902;28;20508;-78
2023/01/24 06:26:27;;;;;;;13.13;10.45;;;2.60;99.90;;;;;;5008231;28;20069;-78
2023/01/24 06:28:53;;;;;;;11.95;10.20;;;2.60;99.90;;;;;;5003601;28;20054;-78
2023/01/24 06:31:33;;;;;;;11.43;10.23;;;2.60;99.90;;;;;;5003303;28;20033;-78
2023/01/24 06:34:08;;;;;;;11.45;10.23;;;2.60;99.90;;;;;;5005239;28;20077;-77
2023/01/24 06:37:10;;;;;;;13.30;10.50;;;2.60;99.90;;;;;;4986702;28;20080;-77
2023/01/24 06:39:39;;;;;;;14.38;10.65;;;2.60;99.90;;;;;;5000095;28;20060;-77
2023/01/24 06:42:05;;;;;;;11.20;9.48;;;2.60;99.90;;;;;;5000105;28;20038;-78
2023/01/24 06:44:31;;;;;;;15.40;11.23;;;2.60;99.90;;;;;;5005362;28;20044;-78
2023/01/24 06:46:56;;;;;;;11.27;10.05;;;2.50;99.90;;;;;;5004014;28;20045;-78
2023/01/24 06:49:22;;;;;;;14.85;11.18;;;2.50;99.90;;;;;;4990434;28;20038;-78
2023/01/24 06:51:51;;;;;;;12.55;9.65;;;2.50;99.90;;;;;;5010137;28;20098;-78
2023/01/24 06:54:17;;;;;;;13.52;10.32;;;2.50;99.90;;;;;;4988061;28;20118;-78
2023/01/24 06:56:43;;;;;;;12.57;10.23;;;2.50;99.90;;;;;;5009769;28;20052;-78
2023/01/24 06:59:08;;;;;;;11.10;8.98;;;2.50;99.90;;;;;;4986351;28;20054;-78
2023/01/24 07:01:34;;;;;;;13.45;10.15;;;2.50;99.90;;;;;;5000352;28;20041;-78
2023/01/24 07:04:00;;;;;;;12.60;10.13;;;2.50;99.90;;;;;;4999690;28;20038;-78
2023/01/24 07:06:26;;;;;;;13.18;10.98;;;2.50;99.90;;;;;;4985279;28;20098;-78
2023/01/24 07:08:52;;;;;;;13.10;10.77;;;2.50;99.90;;;;;;4987899;28;21830;-78
2023/01/24 07:11:18;;;;;;;13.00;11.23;;;2.50;99.90;;;;;;5006765;28;20057;-78
2023/01/24 07:13:44;;;;;;;14.82;11.43;;;2.50;99.90;;;;;;5005003;28;20061;-78
2023/01/24 07:16:10;;;;;;;13.10;10.82;;;2.50;99.90;;;;;;4988085;28;20120;-78
2023/01/24 07:18:36;;;;;;;11.98;8.88;;;2.50;99.90;;;;;;5005877;28;20041;-78
2023/01/24 07:21:05;;;;;;;13.73;11.43;;;2.50;99.90;;;;;;5005742;28;20048;-78
2023/01/24 07:23:32;;;;;;;14.68;11.52;;;2.50;99.90;;;;;;4988429;28;20496;-78
2023/01/24 07:25:59;;;;;;;13.88;11.27;;;2.50;99.90;;;;;;5004693;28;20053;-78
2023/01/24 07:28:24;;;;;;;11.40;8.13;;;2.50;99.90;;;;;;4987628;28;20067;-77
2023/01/24 07:30:52;;;;;;;12.82;10.50;;;2.40;99.90;;;;;;4985445;28;20046;-77
2023/01/24 07:33:18;;;;;;;10.05;8.65;;;2.50;99.90;;;;;;5002695;28;20061;-77
2023/01/24 07:35:44;;;;;;;13.00;11.32;;;2.50;99.90;;;;;;4984796;28;20053;-77
2023/01/24 07:38:11;;;;;;;16.63;11.88;;;2.50;99.90;;;;;;5003617;28;20042;-77
2023/01/24 07:40:38;;;;;;;13.33;11.13;;;2.40;99.90;;;;;;4985934;28;20050;-77
2023/01/24 07:43:04;;;;;;;12.52;10.23;;;2.40;99.90;;;;;;5008041;28;20412;-77
2023/01/24 07:45:31;;;;;;;14.27;12.05;;;2.40;99.90;;;;;;4992652;28;20488;-77
2023/01/24 07:47:58;;;;;;;14.50;11.68;;;2.40;99.90;;;;;;4991106;28;20069;-78
2023/01/24 07:50:25;;;;;;;14.75;9.77;;;2.40;99.90;;;;;;4978504;28;20121;-78
2023/01/24 07:52:54;;;;;;;12.80;10.55;;;2.40;99.90;;;;;;5004045;28;20569;-78
2023/01/24 07:55:20;;;;;;;13.52;11.05;;;2.40;99.90;;;;;;4991041;28;20445;-78
2023/01/24 07:57:46;;;;;;;8.77;7.03;;;2.40;99.90;;;;;;5005339;28;20373;-77
2023/01/24 08:00:13;;;;;;;13.93;10.90;;;2.40;99.90;;;;;;5002846;28;20180;-77
2023/01/24 08:02:40;;;;;;;13.30;10.00;;;2.40;99.90;;;;;;5007664;28;20049;-79
2023/01/24 08:05:06;;;;;;;13.90;11.93;;;2.30;99.90;;;;;;5007596;28;20069;-77
2023/01/24 08:07:32;;;;;;;15.07;11.45;;;2.30;99.90;;;;;;4987957;28;20164;-77
2023/01/24 08:09:57;;;;;;;13.77;11.20;;;2.40;99.90;;;;;;4971057;28;20042;-77
2023/01/24 08:12:23;;;;;;;13.98;11.52;;;2.40;99.90;;;;;;4991195;28;20100;-77
2023/01/24 08:14:49;;;;;;;13.95;11.77;;;2.40;99.90;;;;;;4993524;28;20104;-77
2023/01/24 08:17:15;;;;;;;15.90;11.95;;;2.40;99.90;;;;;;5007669;28;20054;-78
2023/01/24 08:19:41;;;;;;;12.35;10.75;;;2.40;99.90;;;;;;4986049;28;20042;-78
2023/01/24 08:22:07;;;;;;;12.55;10.57;;;2.40;99.90;;;;;;5004204;28;20053;-77
2023/01/24 08:24:33;;;;;;;13.77;11.13;;;2.40;99.90;;;;;;5001804;28;20054;-78
2023/01/24 08:27:00;;;;;;;14.40;12.30;;;2.40;99.90;;;;;;5002475;28;20042;-78
2023/01/24 08:29:26;;;;;;;14.43;11.98;;;2.40;99.90;;;;;;5003179;28;20042;-76
2023/01/24 08:31:52;;;;;;;14.45;11.00;;;2.40;99.90;;;;;;4988711;28;20727;-78
2023/01/24 08:34:18;;;;;;;13.30;11.45;;;2.30;99.90;;;;;;4985138;28;20069;-78
2023/01/24 08:36:44;;;;;;;13.82;12.32;;;2.40;99.90;;;;;;4985450;28;20038;-76
2023/01/24 08:39:09;;;;;;;14.73;11.77;;;2.40;99.90;;;;;;4989444;28;20037;-75
2023/01/24 08:41:35;;;;;;;13.52;11.68;;;2.40;99.90;;;;;;5007381;28;20646;-75
2023/01/24 08:44:02;;;;;;;12.52;10.63;;;2.40;99.90;;;;;;5005761;28;20515;-75
2023/01/24 08:46:29;;;;;;;15.77;12.70;;;2.40;99.90;;;;;;5004309;28;20049;-76
2023/01/24 08:48:55;;;;;;;13.77;11.98;;;2.40;99.90;;;;;;5002256;28;20488;-75
2023/01/24 08:51:20;;;;;;;15.13;11.63;;;2.40;99.90;;;;;;4984444;28;20046;-76
2023/01/24 08:53:46;;;;;;;15.57;12.30;;;2.40;99.90;;;;;;5002717;28;20061;-77
2023/01/24 08:56:12;;;;;;;13.18;11.52;;;2.40;99.90;;;;;;4969439;28;20439;-77
2023/01/24 08:58:38;;;;;;;12.70;10.30;;;2.30;99.90;;;;;;4990552;28;20038;-78
2023/01/24 09:01:07;;;;;;;14.18;11.88;;;2.40;99.90;;;;;;5000285;28;20465;-77
2023/01/24 09:03:33;;;;;;;15.95;12.13;;;2.40;99.90;;;;;;5008391;28;20422;-75
2023/01/24 09:05:59;;;;;;;15.45;11.85;;;2.40;99.90;;;;;;5013235;28;20058;-76
2023/01/24 09:08:25;;;;;;;12.52;11.20;;;2.40;99.90;;;;;;5009191;28;20572;-75
2023/01/24 09:10:51;;;;;;;13.52;11.98;;;;;;;;;;5011246;28;20528;-75
2023/01/24 09:13:17;;;;;;;12.80;11.35;;;2.40;99.90;;;;;;5019877;28;20041;-75
2023/01/24 09:15:43;;;;;;;14.93;11.80;;;2.40;99.90;;;;;;4998343;28;20386;-75
2023/01/24 09:18:08;;;;;;;14.25;11.85;;;2.40;99.90;;;;;;5005311;28;20120;-75
2023/01/24 09:20:34;;;;;;;13.45;10.77;;;2.40;99.90;;;;;;4987276;28;20096;-75
2023/01/24 09:23:00;;;;;;;12.70;10.88;;;2.40;99.90;;;;;;5009726;28;20100;-75
2023/01/24 09:25:26;;;;;;;12.93;10.70;;;2.40;99.90;;;;;;5007051;28;20038;-75
2023/01/24 09:27:55;;;;;;;13.38;11.18;;;2.40;99.90;;;;;;4976037;28;20049;-75
2023/01/24 09:30:22;;;;;;;15.30;11.40;;;2.40;99.90;;;;;;4983257;28;20046;-76
2023/01/24 09:32:48;;;;;;;13.80;11.68;;;2.40;99.90;;;;;;5009915;28;20432;-76
2023/01/24 09:35:14;;;;;;;14.98;10.93;;;2.50;99.90;;;;;;5017394;28;20049;-76
2023/01/24 09:37:42;;;;;;;13.63;12.02;;;2.50;99.90;;;;;;5016091;28;20067;-76
2023/01/24 09:40:17;;;;;;;;;;;2.50;99.90;;;;;;5014521;28;20057;-76
2023/01/24 09:42:50;;;;;;;15.05;10.95;;;2.50;99.90;;;;;;5014576;28;19925;-76
2023/01/24 09:45:28;;;;;;;12.75;11.05;;;2.50;99.90;;;;;;5007666;28;20096;-76
2023/01/24 09:47:58;;;;;;;12.35;10.77;;;2.50;99.90;;;;;;5012350;28;20057;-76
2023/01/24 09:50:36;;;;;;;13.95;10.73;;;2.50;99.90;;;;;;5013740;28;20054;-76
2023/01/24 09:53:02;;;;;;;13.55;11.65;;;2.50;99.90;;;;;;5014038;28;20042;-76
2023/01/24 09:55:32;;;;;;;13.18;11.30;;;2.60;99.90;;;;;;5011717;28;20038;-75
2023/01/24 09:58:31;;;;;;;15.75;11.93;;;2.50;99.90;;;;;;5013050;28;20058;-75
2023/01/24 10:01:05;;;;;;;9.85;8.73;;;2.60;99.90;;;;;;4997190;28;20121;-75
2023/01/24 10:03:31;;;;;;;12.07;10.70;;;2.60;99.90;;;;;;5013275;28;20129;-76
2023/01/24 10:06:04;;;;;;;13.55;12.15;;;2.60;99.90;;;;;;5008617;28;20042;-77
2023/01/24 10:08:58;;;;;;;12.48;11.15;;;2.60;99.90;;;;;;5006512;28;20038;-77
2023/01/24 10:11:39;;;;;;;12.55;10.02;;;2.60;99.90;;;;;;5005893;28;20065;-77
2023/01/24 10:14:25;;;;;;;13.30;11.75;;;2.60;99.90;;;;;;4986845;28;20057;-78
2023/01/24 10:17:09;;;;;;;12.18;9.00;;;2.60;99.90;;;;;;5005927;28;20094;-79
2023/01/24 10:20:00;;;;;;;13.50;10.90;;;2.60;99.90;;;;;;4985524;28;20346;-76
2023/01/24 10:22:37;;;;;;;13.63;10.63;;;2.60;99.90;;;;;;4996771;28;20505;-76
2023/01/24 10:25:12;;;;;;;12.90;10.93;;;2.60;99.90;;;;;;5011122;28;20488;-77
2023/01/24 10:27:51;;;;;;;11.30;10.05;;;2.60;99.90;;;;;;4996967;28;20054;-78
2023/01/24 10:30:20;;;;;;;13.30;11.48;;;2.60;99.90;;;;;;4996874;28;20140;-77
2023/01/24 10:32:48;;;;;;;13.00;11.63;;;2.60;99.90;;;;;;4993462;28;20037;-77
2023/01/24 10:35:23;;;;;;;14.23;11.60;;;2.60;99.90;;;;;;5012497;28;20455;-77
2023/01/24 10:37:55;;;;;;;13.65;11.18;;;2.60;99.90;;;;;;5010900;28;20085;-77
2023/01/24 10:40:24;;;;;;;13.40;12.00;;;2.60;99.90;;;;;;5013065;28;20152;-77
2023/01/24 10:42:50;;;;;;;12.52;11.02;;;2.70;99.90;;;;;;4995000;28;20045;-77
2023/01/24 10:45:35;;;;;;;11.88;10.68;;;2.70;99.90;;;;;;5013110;28;20041;-77
2023/01/24 10:48:17;;;;;;;10.52;9.40;;;2.70;99.90;;;;;;4995225;28;20053;-77
2023/01/24 10:50:44;;;;;;;11.75;10.25;;;2.60;99.90;;;;;;4992202;28;20042;-77
2023/01/24 10:53:24;;;;;;;9.70;8.68;;;2.60;99.90;;;;;;4994606;28;20038;-77
2023/01/24 10:56:01;;;;;;;13.10;10.10;;;2.60;99.90;;;;;;4995512;28;20136;-77
2023/01/24 10:58:40;;;;;;;11.35;8.90;;;2.60;99.90;;;;;;5012986;28;20068;-77
2023/01/24 11:01:17;;;;;;;12.02;10.07;;;2.60;99.90;;;;;;5012573;28;20050;-77
2023/01/24 11:03:44;;;;;;;10.63;8.85;;;2.70;99.90;;;;;;5013046;28;20049;-77
2023/01/24 11:06:39;;;;;;;14.25;11.07;;;2.60;99.90;;;;;;5010624;28;20382;-77
2023/01/24 11:09:14;;;;;;;12.05;10.85;;;2.60;99.90;;;;;;4980172;28;20405;-77
2023/01/24 11:12:00;;;;;;;11.45;10.25;;;2.60;99.90;;;;;;4993342;28;20057;-77
2023/01/24 11:14:30;;;;;;;11.02;9.90;;;2.70;99.90;;;;;;4992738;28;20061;-77
2023/01/24 11:16:58;;;;;;;13.13;10.93;;;2.70;99.90;;;;;;4993345;28;20039;-77
2023/01/24 11:19:33;;;;;;;13.20;11.70;;;2.70;99.90;;;;;;4995518;28;20052;-77
2023/01/24 11:22:19;;;;;;;10.15;8.48;;;2.80;99.90;;;;;;5009154;28;20046;-77
2023/01/24 11:24:45;;;;;;;11.60;10.23;;;2.80;99.90;;;;;;5005575;28;20070;-76
2023/01/24 11:27:17;;;;;;;13.43;11.60;;;2.80;99.90;;;;;;5011815;28;20148;-78
2023/01/24 11:29:43;;;;;;;12.60;10.93;;;2.80;99.90;;;;;;5008667;28;20118;-78
2023/01/24 11:32:30;;;;;;;13.27;11.88;;;2.80;99.90;;;;;;5009539;28;20105;-77
2023/01/24 11:35:32;;;;;;;15.02;12.95;;;2.80;99.90;;;;;;5011987;28;20084;-77
2023/01/24 11:38:10;;;;;;;13.68;12.27;;;2.80;99.90;;;;;;5000799;28;20045;-77
2023/01/24 11:40:40;;;;;;;14.77;13.27;;;2.90;99.90;;;;;;5010526;28;20042;-77
2023/01/24 11:43:23;;;;;;;12.90;11.55;;;2.90;99.90;;;;;;4986922;28;20046;-78
2023/01/24 11:46:16;;;;;;;13.52;12.13;;;2.90;99.90;;;;;;5005735;28;20050;-77
2023/01/24 11:49:09;;;;;;;14.35;12.60;;;2.90;99.90;;;;;;4988432;28;20045;-77
2023/01/24 11:52:02;;;;;;;13.80;12.18;;;2.90;99.90;;;;;;5004454;28;20396;-77
2023/01/24 11:54:49;;;;;;;13.15;11.85;;;3.00;99.90;;;;;;5009737;28;20721;-77
2023/01/24 11:57:21;;;;;;;12.07;10.88;;;3.00;99.90;;;;;;5008365;28;20412;-77
2023/01/24 12:00:25;;;;;;;8.82;6.38;;;3.10;99.90;;;;;;4968685;28;20515;-77
2023/01/24 12:03:15;;;;;;;12.13;10.93;;;3.00;99.90;;;;;;5000167;28;20110;-77
2023/01/24 12:06:01;;;;;;;15.50;13.93;;;3.00;99.90;;;;;;4997950;28;20050;-77
2023/01/24 12:09:01;;;;;;;17.73;15.93;;;3.00;99.90;;;;;;5010212;28;20385;-77
2023/01/24 12:11:52;;;;;;;15.25;13.65;;;2.90;99.90;;;;;;4996845;28;20046;-77
2023/01/24 12:14:45;;;;;;;13.82;12.43;;;2.90;99.90;;;;;;5007268;28;20046;-77
2023/01/24 12:17:48;;;;;;;15.10;13.55;;;3.00;99.90;;;;;;4993068;28;20053;-77
2023/01/24 12:20:25;;;;;;;14.23;12.73;;;3.00;99.90;;;;;;5006111;28;20041;-77
2023/01/24 12:22:53;;;;;;;13.60;11.50;;;3.00;99.90;;;;;;5011662;28;20128;-77
2023/01/24 12:25:30;;;;;;;12.10;10.88;;;3.00;99.90;;;;;;5015349;28;20042;-77
2023/01/24 12:27:59;;;;;;;14.25;11.40;;;3.00;99.90;;;;;;4995351;28;20046;-77
2023/01/24 12:30:52;;;;;;;11.50;9.52;;;3.10;99.90;;;;;;5013758;28;20046;-77
2023/01/24 12:33:23;;;;;;;11.05;9.95;;;3.00;99.90;;;;;;4985954;28;20042;-77
2023/01/24 12:36:03;;;;;;;9.15;8.27;;;2.90;99.90;;;;;;5014335;28;20041;-77
2023/01/24 12:38:34;;;;;;;11.73;10.52;;;2.90;99.90;;;;;;4997908;28;20046;-77
2023/01/24 12:41:31;;;;;;;11.40;9.30;;;2.90;99.90;;;;;;5009514;28;20045;-77
2023/01/24 12:44:09;;;;;;;12.70;10.30;;;2.80;99.90;;;;;;4995889;28;20062;-77
2023/01/24 12:46:56;;;;;;;11.25;10.05;;;2.80;99.90;;;;;;5011408;28;20500;-77
2023/01/24 12:49:40;;;;;;;11.35;10.00;;;2.80;99.90;;;;;;5008177;28;20054;-77
2023/01/24 12:52:19;;;;;;;11.20;10.05;;;2.80;99.90;;;;;;4994653;28;20050;-76
2023/01/24 12:54:51;;;;;;;12.95;11.27;;;2.80;99.90;;;;;;5008882;28;20054;-77
2023/01/24 12:57:29;;;;;;;13.57;12.15;;;2.70;99.90;;;;;;5013494;28;20121;-77
2023/01/24 12:59:54;;;;;;;;;;;2.80;99.90;;;;;;5008188;28;20052;-77
2023/01/24 13:02:49;;;;;;;12.40;11.10;;;2.80;99.90;;;;;;4985399;28;19925;-77
2023/01/24 13:05:31;;;;;;;12.75;11.45;;;2.80;99.90;;;;;;4997859;28;20117;-77
2023/01/24 13:08:13;;;;;;;13.32;11.35;;;2.80;99.90;;;;;;5009289;28;20124;-76
2023/01/24 13:11:12;;;;;;;11.80;10.57;;;2.80;99.90;;;;;;5009714;28;20068;-77
2023/01/24 13:14:02;;;;;;;10.90;9.80;;;2.80;99.90;;;;;;4980860;28;20125;-77
2023/01/24 13:16:45;;;;;;;11.63;9.95;;;2.80;99.90;;;;;;4989497;28;20033;-77
2023/01/24 13:19:11;;;;;;;11.70;9.43;;;2.80;99.90;;;;;;5016268;28;20045;-77
2023/01/24 13:22:03;;;;;;;11.52;10.10;;;2.80;99.90;;;;;;5007948;28;20042;-77
2023/01/24 13:24:29;;;;;;;11.40;10.20;;;2.70;99.90;;;;;;4994665;28;20496;-77
2023/01/24 13:27:32;;;;;;;10.45;8.85;;;2.70;99.90;;;;;;4995006;28;20042;-77
2023/01/24 13:30:02;;;;;;;11.32;9.73;;;2.60;99.90;;;;;;5013435;28;20045;-77
2023/01/24 13:32:30;;;;;;;10.82;9.70;;;2.60;99.90;;;;;;5012720;28;20053;-77
2023/01/24 13:34:58;;;;;;;13.13;9.68;;;2.60;99.90;;;;;;4989301;28;20042;-77
2023/01/24 13:37:25;;;;;;;;;;;2.60;99.90;;;;;;5003073;28;20544;-77
2023/01/24 13:40:24;;;;;;;9.85;8.30;;;2.60;99.90;;;;;;5004465;28;20368;-77
2023/01/24 13:42:50;;;;;;;11.55;10.35;;;2.60;99.90;;;;;;4999046;28;20649;-77